Time;durP1;ratioP1;P1;durP2;ratioP2;P2;SDS_P1;SDS_P2;PMS_P1;PMS_P2;Temp;Humidity;BMP_temperature;BMP_pressure;BME280_temperature;BME280_humidity;BME280_pressure;Samples;Min_cycle;Max_cycle;Signal;HPM_P1;HPM_P2
2022/11/02 00:00:19;;;;;;;;;;;18.90;62.10;;;;;;5128501;28;19927;-66
2022/11/02 00:02:44;;;;;;;;;;;18.90;62.10;;;;;;5128103;28;19919;-66
2022/11/02 00:05:10;;;;;;;;;;;18.90;62.10;;;;;;5119126;28;19920;-67
2022/11/02 00:07:36;;;;;;;;;;;18.80;62.20;;;;;;5114311;28;19957;-66
2022/11/02 00:10:01;;;;;;;;;;;18.80;62.20;;;;;;5114615;28;19963;-66
2022/11/02 00:12:27;;;;;;;;;;;18.80;62.20;;;;;;5115487;28;20460;-66
2022/11/02 00:14:52;;;;;;;;;;;18.80;62.30;;;;;;5115605;28;20366;-66
2022/11/02 00:17:18;;;;;;;;;;;18.80;62.20;;;;;;5114164;28;20014;-67
2022/11/02 00:19:43;;;;;;;;;;;18.80;62.20;;;;;;5114338;28;19919;-66
2022/11/02 00:22:09;;;;;;;;;;;18.80;62.30;;;;;;5114373;28;19946;-66
2022/11/02 00:24:34;;;;;;;;;;;18.80;62.30;;;;;;5114104;28;20393;-66
2022/11/02 00:27:00;;;;;;;;;;;18.80;62.40;;;;;;5115134;28;19982;-66
2022/11/02 00:29:26;;;;;;;;;;;18.80;62.40;;;;;;5113956;28;19919;-66
2022/11/02 00:31:52;;;;;;;;;;;18.70;62.40;;;;;;5113757;28;19977;-67
2022/11/02 00:34:17;;;;;;;;;;;18.80;62.50;;;;;;5092123;28;19955;-66
2022/11/02 00:36:43;;;;;;;;;;;18.80;62.50;;;;;;5093083;28;19931;-66
2022/11/02 00:39:08;;;;;;;;;;;18.80;62.50;;;;;;5093732;28;19924;-67
2022/11/02 00:41:34;;;;;;;;;;;18.80;62.50;;;;;;5094611;28;20333;-67
2022/11/02 00:43:59;;;;;;;;;;;18.80;62.50;;;;;;5094678;28;19920;-66
2022/11/02 00:46:25;;;;;;;;;;;18.80;62.50;;;;;;5094556;28;19920;-66
2022/11/02 00:48:50;;;;;;;;;;;18.80;62.60;;;;;;5093348;28;20384;-66
2022/11/02 00:51:16;;;;;;;;;;;18.80;62.60;;;;;;5094480;28;19924;-66
2022/11/02 00:53:41;;;;;;;;;;;18.70;62.60;;;;;;5075432;28;19999;-66
2022/11/02 00:56:07;;;;;;;;;;;18.80;62.60;;;;;;5092970;28;20018;-66
2022/11/02 00:58:32;;;;;;;;;;;18.70;62.70;;;;;;5092977;28;20421;-66
2022/11/02 01:01:02;;;;;;;;;;;18.80;62.70;;;;;;5094375;28;19938;-66
2022/11/02 01:03:28;;;;;;;;;;;18.70;62.70;;;;;;5094222;28;19920;-67
2022/11/02 01:05:54;;;;;;;;;;;18.70;62.70;;;;;;5094241;28;19965;-67
2022/11/02 01:08:19;;;;;;;;;;;18.70;62.70;;;;;;5093047;28;19924;-66
2022/11/02 01:10:45;;;;;;;;;;;18.70;62.70;;;;;;5092916;28;19916;-67
2022/11/02 01:13:10;;;;;;;;;;;18.70;62.80;;;;;;5092287;28;20030;-66
2022/11/02 01:15:36;;;;;;;;;;;18.70;62.80;;;;;;5103494;28;19927;-66
2022/11/02 01:18:01;;;;;;;;;;;18.70;62.80;;;;;;5111977;28;19926;-67
2022/11/02 01:20:27;;;;;;;;;;;18.70;62.90;;;;;;5112909;28;20014;-66
2022/11/02 01:22:52;;;;;;;;;;;18.70;62.90;;;;;;5114173;28;20049;-66
2022/11/02 01:25:18;;;;;;;;;;;18.70;62.90;;;;;;5114057;28;19920;-66
2022/11/02 01:27:43;;;;;;;;;;;18.70;62.90;;;;;;5112918;28;20264;-67
2022/11/02 01:30:09;;;;;;;;;;;18.70;63.00;;;;;;5113974;28;19923;-67
2022/11/02 01:32:37;;;;;;;;;;;18.60;62.90;;;;;;5112730;28;20432;-66
2022/11/02 01:35:03;;;;;;;;;;;18.70;63.10;;;;;;5112233;28;19927;-66
2022/11/02 01:37:29;;;;;;;;;;;18.60;63.00;;;;;;5112742;28;19924;-66
2022/11/02 01:39:54;;;;;;;;;;;18.60;63.00;;;;;;5112515;28;19942;-66
2022/11/02 01:42:21;;;;;;;;;;;18.60;63.00;;;;;;5112472;28;19927;-66
2022/11/02 01:44:47;;;;;;;;;;;18.60;63.00;;;;;;5112343;28;19919;-66
2022/11/02 01:47:17;;;;;;;;;;;18.60;63.00;;;;;;5112769;28;20010;-66
2022/11/02 01:49:44;;;;;;;;;;;18.60;63.10;;;;;;5095360;28;19927;-67
2022/11/02 01:52:12;;;;;;;;;;;18.60;63.10;;;;;;5113581;27;19939;-67
2022/11/02 01:54:40;;;;;;;;;;;18.60;63.10;;;;;;5111569;28;19923;-67
2022/11/02 01:57:07;;;;;;;;;;;18.60;63.10;;;;;;5111889;28;19926;-67
2022/11/02 01:59:35;;;;;;;;;;;18.60;63.80;;;;;;5113348;28;19920;-66
2022/11/02 02:02:04;;;;;;;;;;;18.60;63.10;;;;;;5113409;28;19926;-67
2022/11/02 02:04:31;;;;;;;;;;;18.50;63.10;;;;;;5113480;28;19937;-67
2022/11/02 02:06:57;;;;;;;;;;;18.50;63.10;;;;;;5113659;28;19919;-67
2022/11/02 02:09:23;;;;;;;;;;;18.50;63.20;;;;;;5112383;28;20399;-67
2022/11/02 02:11:48;;;;;;;;;;;18.50;63.10;;;;;;5112029;28;20012;-67
2022/11/02 02:14:16;;;;;;;;;;;18.50;63.20;;;;;;5111536;28;20032;-66
2022/11/02 02:16:47;;;;;;;;;;;18.50;63.20;;;;;;5111645;28;19959;-66
2022/11/02 02:19:20;;;;;;;;;;;18.50;63.20;;;;;;5111847;28;19969;-67
2022/11/02 02:24:36;;;;;;;;;;;18.50;63.20;;;;;;5110258;27;19913;-65
2022/11/02 02:27:06;;;;;;;;;;;18.50;63.20;;;;;;5108850;28;19919;-65
2022/11/02 02:34:53;;;;;;;;;;;18.40;63.30;;;;;;5109790;27;20364;-65
2022/11/02 02:40:05;;;;;;;;;;;18.50;63.40;;;;;;5089793;27;19912;-65
2022/11/02 02:42:33;;;;;;;;;;;18.50;63.30;;;;;;5088861;28;20015;-65
2022/11/02 02:45:18;;;;;;;;;;;18.40;63.30;;;;;;5089987;28;20034;-65
2022/11/02 02:47:47;;;;;;;;;;;18.40;63.30;;;;;;5088310;28;19974;-65
2022/11/02 02:50:17;;;;;;;;;;;18.40;63.30;;;;;;5088500;28;19943;-65
2022/11/02 02:52:44;;;;;;;;;;;18.40;63.30;;;;;;5088240;28;19920;-65
2022/11/02 02:55:13;;;;;;;;;;;18.40;63.40;;;;;;5088296;28;20399;-66
2022/11/02 02:57:43;;;;;;;;;;;18.40;63.40;;;;;;5088022;28;19921;-66
2022/11/02 03:00:13;;;;;;;;;;;18.40;63.40;;;;;;5089639;28;19920;-65
2022/11/02 03:02:39;;;;;;;;;;;18.40;63.40;;;;;;5089485;28;19920;-65
2022/11/02 03:05:21;;;;;;;;;;;18.40;63.40;;;;;;5088129;28;19951;-66
2022/11/02 03:07:47;;;;;;;;;;;18.30;63.30;;;;;;5089408;28;19927;-66
2022/11/02 03:12:59;;;;;;;;;;;18.40;63.40;;;;;;5110375;27;19938;-65
2022/11/02 03:15:29;;;;;;;;;;;18.40;63.40;;;;;;5108894;28;19927;-65
2022/11/02 03:21:14;;;;;;;;;;;18.30;63.40;;;;;;5089831;28;19916;-66
2022/11/02 03:23:43;;;;;;;;;;;18.30;63.30;;;;;;5088869;28;19924;-66
2022/11/02 03:26:11;;;;;;;;;;;18.30;63.40;;;;;;5088525;28;20380;-66
2022/11/02 03:28:42;;;;;;;;;;;18.30;63.40;;;;;;5088506;28;19927;-66
2022/11/02 03:31:12;;;;;;;;;;;18.30;63.40;;;;;;5088736;28;20396;-66
2022/11/02 03:33:44;;;;;;;;;;;18.40;63.40;;;;;;5088458;28;19920;-66
2022/11/02 03:36:12;;;;;;;;;;;18.30;63.30;;;;;;5087939;28;19924;-65
2022/11/02 03:38:56;;;;;;;;;;;18.20;63.30;;;;;;5089043;28;20354;-65
2022/11/02 03:41:23;;;;;;;;;;;18.20;63.30;;;;;;5089527;28;19959;-66
2022/11/02 03:43:51;;;;;;;;;;;18.30;63.30;;;;;;5088550;28;20281;-65
2022/11/02 03:46:17;;;;;;;;;;;18.20;63.30;;;;;;5089630;28;20403;-65
2022/11/02 03:48:45;;;;;;;;;;;18.30;63.30;;;;;;5089468;28;20011;-66
2022/11/02 03:51:12;;;;;;;;;;;18.20;63.30;;;;;;5088121;28;19924;-65
2022/11/02 03:59:04;;;;;;;;;;;18.10;63.20;;;;;;5089670;28;19912;-65
2022/11/02 04:01:31;;;;;;;;;;;18.20;63.40;;;;;;5088687;28;19926;-65
2022/11/02 04:03:56;;;;;;;;;;;18.20;63.30;;;;;;5088759;28;19928;-65
2022/11/02 04:06:24;;;;;;;;;;;18.20;63.30;;;;;;5088877;28;19920;-66
2022/11/02 04:08:49;;;;;;;;;;;18.20;63.40;;;;;;5088455;28;19931;-66
2022/11/02 04:16:46;;;;;;;;;;;18.10;63.30;;;;;;5088352;28;19928;-65
2022/11/02 04:19:27;;;;;;;;;;;18.10;63.20;;;;;;5089520;28;20027;-65
2022/11/02 04:27:24;;;;;;;;;;;18.10;63.20;;;;;;5089336;28;19921;-65
2022/11/02 04:29:49;;;;;;;;;;;18.10;63.30;;;;;;5089331;28;19931;-65
2022/11/02 04:33:31;;;;;;;;;;;18.10;63.30;;;;;;5089365;28;19956;-65
2022/11/02 04:35:01;;;;;;;;;;;18.10;63.30;;;;;;5088085;28;20346;-66
2022/11/02 04:40:12;;;;;;;;;;;18.10;63.30;;;;;;5088898;28;19920;-66
2022/11/02 04:42:37;;;;;;;;;;;18.00;63.30;;;;;;5088146;28;19927;-66
2022/11/02 04:45:03;;;;;;;;;;;18.10;63.30;;;;;;5089110;28;19935;-66
2022/11/02 04:47:29;;;;;;;;;;;18.00;63.30;;;;;;5087970;28;20383;-66
2022/11/02 04:49:54;;;;;;;;;;;18.00;63.30;;;;;;5087155;28;19928;-66
2022/11/02 04:52:20;;;;;;;;;;;18.00;63.20;;;;;;5087418;28;19928;-66
2022/11/02 04:54:45;;;;;;;;;;;18.00;63.30;;;;;;5087895;28;19977;-66
2022/11/02 04:57:11;;;;;;;;;;;18.00;63.30;;;;;;5087070;28;20594;-66
2022/11/02 04:59:36;;;;;;;;;;;18.00;63.30;;;;;;5088793;28;19920;-66
2022/11/02 05:02:02;;;;;;;;;;;18.00;63.30;;;;;;5087402;28;19920;-66
2022/11/02 05:04:27;;;;;;;;;;;18.00;63.30;;;;;;5087458;28;19920;-66
2022/11/02 05:06:56;;;;;;;;;;;18.00;63.30;;;;;;5088533;28;19965;-66
2022/11/02 05:09:21;;;;;;;;;;;18.00;63.40;;;;;;5080309;28;20575;-66
2022/11/02 05:11:47;;;;;;;;;;;18.00;63.40;;;;;;5074822;28;19968;-66
2022/11/02 05:14:12;;;;;;;;;;;17.90;63.30;;;;;;5075102;28;20011;-65
2022/11/02 05:16:38;;;;;;;;;;;17.90;63.30;;;;;;5074929;28;19973;-66
2022/11/02 05:19:03;;;;;;;;;;;17.80;63.20;;;;;;5073666;28;20380;-66
2022/11/02 05:21:29;;;;;;;;;;;18.00;63.30;;;;;;5073444;28;19920;-66
2022/11/02 05:23:54;;;;;;;;;;;17.90;63.30;;;;;;5073559;28;19921;-66
2022/11/02 05:26:20;;;;;;;;;;;17.90;63.30;;;;;;5074733;28;19920;-66
2022/11/02 05:28:45;;;;;;;;;;;17.90;63.40;;;;;;5074469;28;20376;-66
2022/11/02 05:31:11;;;;;;;;;;;17.90;63.40;;;;;;5073087;28;19924;-66
2022/11/02 05:33:36;;;;;;;;;;;17.90;63.30;;;;;;5074564;28;19925;-66
2022/11/02 05:36:02;;;;;;;;;;;17.90;63.30;;;;;;5073490;28;19928;-66
2022/11/02 05:38:28;;;;;;;;;;;17.90;63.40;;;;;;5073075;28;20011;-66
2022/11/02 05:40:55;;;;;;;;;;;17.90;63.40;;;;;;5074786;28;20399;-66
2022/11/02 05:43:21;;;;;;;;;;;17.90;63.40;;;;;;5074532;28;19920;-66
2022/11/02 05:45:50;;;;;;;;;;;17.90;63.40;;;;;;5073461;28;19920;-66
2022/11/02 05:48:15;;;;;;;;;;;17.90;63.50;;;;;;5072865;28;19975;-66
2022/11/02 05:50:41;;;;;;;;;;;17.90;63.50;;;;;;5073023;28;19967;-66
2022/11/02 05:53:06;;;;;;;;;;;17.80;63.50;;;;;;5072974;28;20249;-66
2022/11/02 05:55:32;;;;;;;;;;;17.80;63.40;;;;;;5072977;28;19927;-66
2022/11/02 05:57:58;;;;;;;;;;;17.80;63.50;;;;;;5085295;28;20011;-66
2022/11/02 06:00:23;;;;;;;;;;;17.80;63.50;;;;;;5076612;28;19927;-66
2022/11/02 06:02:55;;;;;;;;;;;17.80;63.50;;;;;;5076155;28;19931;-66
2022/11/02 06:05:20;;;;;;;;;;;17.80;63.50;;;;;;5094316;28;19924;-66
2022/11/02 06:07:46;;;;;;;;;;;17.80;63.50;;;;;;5093972;28;20066;-66
2022/11/02 06:10:12;;;;;;;;;;;17.80;63.60;;;;;;5075680;28;20398;-66
2022/11/02 06:12:37;;;;;;;;;;;17.80;63.50;;;;;;5075554;28;19920;-66
2022/11/02 06:15:03;;;;;;;;;;;17.80;63.60;;;;;;5093655;28;20379;-66
2022/11/02 06:17:35;;;;;;;;;;;17.80;63.60;;;;;;5076067;28;19924;-66
2022/11/02 06:20:00;;;;;;;;;;;17.80;63.60;;;;;;5075435;28;19969;-66
2022/11/02 06:22:25;;;;;;;;;;;17.80;63.60;;;;;;5075110;28;19924;-66
2022/11/02 06:24:51;;;;;;;;;;;17.80;63.60;;;;;;5075713;28;20015;-66
2022/11/02 06:27:17;;;;;;;;;;;17.70;63.60;;;;;;5093837;28;19920;-66
2022/11/02 06:29:42;;;;;;;;;;;17.70;63.60;;;;;;5075248;28;19973;-66
2022/11/02 06:32:08;;;;;;;;;;;17.70;63.60;;;;;;5093318;28;19920;-65
2022/11/02 06:34:33;;;;;;;;;;;17.70;63.60;;;;;;5058938;28;19924;-66
2022/11/02 06:36:58;;;;;;;;;;;17.70;63.60;;;;;;5075728;28;19924;-65
2022/11/02 06:39:24;;;;;;;;;;;17.80;63.70;;;;;;5093409;28;20410;-66
2022/11/02 06:41:50;;;;;;;;;;;17.80;63.70;;;;;;5093573;28;19919;-65
2022/11/02 06:44:15;;;;;;;;;;;17.70;63.70;;;;;;5075328;28;20452;-66
2022/11/02 06:46:41;;;;;;;;;;;17.70;63.70;;;;;;5075749;28;19920;-66
2022/11/02 06:49:06;;;;;;;;;;;17.70;63.70;;;;;;5075220;28;19920;-65
2022/11/02 06:51:32;;;;;;;;;;;17.70;63.70;;;;;;5075035;28;20268;-66
2022/11/02 06:53:57;;;;;;;;;;;17.70;63.70;;;;;;5074942;28;19927;-66
2022/11/02 06:56:23;;;;;;;;;;;17.70;63.70;;;;;;5075451;28;19920;-66
2022/11/02 06:58:48;;;;;;;;;;;17.70;63.70;;;;;;5074697;28;20394;-65
2022/11/02 07:01:14;;;;;;;;;;;17.70;63.70;;;;;;5093346;28;19943;-66
2022/11/02 07:03:40;;;;;;;;;;;17.70;63.80;;;;;;5091977;28;20330;-66
2022/11/02 07:06:05;;;;;;;;;;;17.60;63.70;;;;;;5074936;28;20015;-66
2022/11/02 07:08:31;;;;;;;;;;;17.70;63.80;;;;;;5092903;28;19920;-66
2022/11/02 07:10:56;;;;;;;;;;;17.70;63.70;;;;;;5074311;28;19927;-66
2022/11/02 07:13:22;;;;;;;;;;;17.60;63.80;;;;;;5074622;28;19920;-66
2022/11/02 07:15:50;;;;;;;;;;;17.70;63.80;;;;;;5074812;28;19920;-66
2022/11/02 07:18:15;;;;;;;;;;;17.60;63.80;;;;;;5092848;28;19928;-66
2022/11/02 07:20:41;;;;;;;;;;;17.70;63.80;;;;;;5073393;28;19985;-66
2022/11/02 07:23:07;;;;;;;;;;;17.60;63.80;;;;;;5073193;28;20349;-66
2022/11/02 07:25:33;;;;;;;;;;;17.60;64.60;;;;;;5073371;28;19927;-66
2022/11/02 07:27:59;;;;;;;;;;;17.60;63.80;;;;;;5090374;28;19920;-66
2022/11/02 07:30:25;;;;;;;;;;;17.60;63.80;;;;;;5072816;28;20287;-66
2022/11/02 07:32:51;;;;;;;;;;;17.60;63.80;;;;;;5090454;28;19920;-66
2022/11/02 07:35:17;;;;;;;;;;;17.60;63.80;;;;;;5089894;28;19920;-66
2022/11/02 07:37:43;;;;;;;;;;;17.60;63.80;;;;;;5090918;28;19928;-66
2022/11/02 07:40:09;;;;;;;;;;;17.60;63.90;;;;;;5091077;28;20287;-66
2022/11/02 07:42:35;;;;;;;;;;;17.60;63.90;;;;;;5072926;28;20387;-66
2022/11/02 07:45:01;;;;;;;;;;;17.60;63.80;;;;;;5090952;28;20019;-66
2022/11/02 07:47:26;;;;;;;;;;;17.60;63.80;;;;;;5091261;28;20375;-66
2022/11/02 07:49:52;;;;;;;;;;;17.60;63.90;;;;;;5090616;28;19973;-66
2022/11/02 07:52:17;;;;;;;;;;;17.60;63.80;;;;;;5089184;28;19974;-66
2022/11/02 07:54:43;;;;;;;;;;;17.60;63.90;;;;;;5090975;28;19920;-66
2022/11/02 07:57:08;;;;;;;;;;;17.50;63.80;;;;;;5090193;28;20388;-66
2022/11/02 07:59:35;;;;;;;;;;;17.60;63.90;;;;;;5091369;28;19978;-66
2022/11/02 08:02:01;;;;;;;;;;;17.60;63.80;;;;;;5072811;28;19920;-66
2022/11/02 08:04:26;;;;;;;;;;;17.60;63.80;;;;;;5091093;28;19920;-66
2022/11/02 08:06:52;;;;;;;;;;;17.60;63.80;;;;;;5091921;28;20007;-66
2022/11/02 08:09:18;;;;;;;;;;;17.60;63.80;;;;;;5074030;28;19928;-66
2022/11/02 08:11:43;;;;;;;;;;;17.50;63.80;;;;;;5091130;28;20015;-66
2022/11/02 08:14:09;;;;;;;;;;;17.60;63.80;;;;;;5073149;28;19920;-66
2022/11/02 08:16:34;;;;;;;;;;;17.60;63.80;;;;;;5090972;28;19920;-66
2022/11/02 08:19:00;;;;;;;;;;;17.60;63.80;;;;;;5072708;28;19920;-66
2022/11/02 08:21:25;;;;;;;;;;;17.60;63.80;;;;;;5090311;28;19928;-66
2022/11/02 08:23:51;;;;;;;;;;;17.50;63.80;;;;;;5073442;28;19928;-66
2022/11/02 08:26:17;;;;;;;;;;;17.60;63.90;;;;;;5091528;28;19920;-66
2022/11/02 08:28:42;;;;;;;;;;;17.50;63.80;;;;;;5073537;28;19920;-65
2022/11/02 08:31:11;;;;;;;;;;;17.50;63.80;;;;;;5091332;28;20272;-66
2022/11/02 08:33:37;;;;;;;;;;;17.50;63.80;;;;;;5072619;28;19920;-65
2022/11/02 08:36:03;;;;;;;;;;;17.50;63.80;;;;;;5091141;28;19926;-66
2022/11/02 08:38:29;;;;;;;;;;;17.50;63.80;;;;;;5073113;28;19920;-66
2022/11/02 08:40:55;;;;;;;;;;;17.50;63.80;;;;;;5091242;28;19925;-66
2022/11/02 08:43:20;;;;;;;;;;;17.40;63.80;;;;;;5073348;28;20466;-66
2022/11/02 08:45:46;;;;;;;;;;;17.50;63.80;;;;;;5095192;28;19965;-66
2022/11/02 08:48:12;;;;;;;;;;;17.50;63.80;;;;;;5095132;28;19926;-66
2022/11/02 08:50:37;;;;;;;;;;;17.50;63.80;;;;;;5094998;28;19924;-66
2022/11/02 08:53:03;;;;;;;;;;;17.50;63.70;;;;;;5093897;28;19920;-66
2022/11/02 08:55:29;;;;;;;;;;;17.50;63.80;;;;;;5077567;28;19920;-66
2022/11/02 08:57:55;;;;;;;;;;;17.50;63.80;;;;;;5094220;28;20260;-66
2022/11/02 09:00:22;;;;;;;;;;;17.50;63.80;;;;;;5077611;28;19965;-66
2022/11/02 09:03:08;;;;;;;;;;;17.60;63.80;;;;;;5094209;28;19920;-67
2022/11/02 09:05:34;;;;;;;;;;;17.50;63.80;;;;;;5095217;28;19920;-66
2022/11/02 09:08:01;;;;;;;;;;;17.50;63.70;;;;;;5095421;28;20295;-67
2022/11/02 09:10:28;;;;;;;;;;;17.50;63.80;;;;;;5094913;28;19920;-66
2022/11/02 09:12:53;;;;;;;;;;;17.50;63.80;;;;;;5076674;28;19920;-66
2022/11/02 09:15:19;;;;;;;;;;;17.50;63.70;;;;;;5076924;28;19927;-67
2022/11/02 09:17:46;;;;;;;;;;;17.40;63.60;;;;;;5095311;28;19924;-67
2022/11/02 09:20:12;;;;;;;;;;;17.50;63.80;;;;;;5077290;28;19939;-67
2022/11/02 09:22:38;;;;;;;;;;;17.50;63.80;;;;;;5095194;28;20291;-67
2022/11/02 09:25:03;;;;;;;;;;;17.50;63.70;;;;;;5076884;28;20554;-66
2022/11/02 09:27:29;;;;;;;;;;;17.40;63.60;;;;;;5076688;28;19920;-67
2022/11/02 09:29:54;;;;;;;;;;;17.50;63.70;;;;;;5094622;28;19964;-66
2022/11/02 09:32:20;;;;;;;;;;;17.40;63.60;;;;;;5076449;28;19920;-67
2022/11/02 09:34:46;;;;;;;;;;;17.50;63.60;;;;;;5076435;28;19924;-67
2022/11/02 09:37:11;;;;;;;;;;;17.40;63.60;;;;;;5094750;28;19950;-67
2022/11/02 09:39:37;;;;;;;;;;;17.50;64.40;;;;;;5076714;28;19920;-66
2022/11/02 09:42:09;;;;;;;;;;;17.50;63.60;;;;;;5093618;28;20340;-67
2022/11/02 09:47:15;;;;;;;;;;;17.50;63.60;;;;;;5089981;28;20275;-64
2022/11/02 09:49:41;;;;;;;;;;;17.50;63.60;;;;;;5088442;28;19920;-66
2022/11/02 09:52:11;;;;;;;;;;;17.40;63.50;;;;;;5088160;28;20019;-66
2022/11/02 09:54:40;;;;;;;;;;;17.50;63.60;;;;;;5089406;28;20295;-66
2022/11/02 09:57:14;;;;;;;;;;;17.40;63.50;;;;;;5089407;28;20431;-66
2022/11/02 09:59:40;;;;;;;;;;;17.50;63.60;;;;;;5088154;28;20394;-66
2022/11/02 10:02:25;;;;;;;;;;;17.50;63.60;;;;;;5088582;28;19920;-66
2022/11/02 10:10:37;;;;;;;;;;;17.40;63.50;;;;;;5089766;28;19919;-66
2022/11/02 10:16:01;;;;;;;;;;;17.50;63.50;;;;;;5127683;27;1859480;-66
2022/11/02 10:18:28;;;;;;;;;;;17.40;63.50;;;;;;5193460;27;19923;-66
2022/11/02 10:20:57;;;;;;;;;;;17.50;63.50;;;;;;5174524;27;19934;-66
2022/11/02 10:23:43;;;;;;;;;;;17.40;63.50;;;;;;5193160;27;20392;-66
2022/11/02 10:26:16;;;;;;;;;;;17.40;63.40;;;;;;5174277;27;19926;-66
2022/11/02 10:28:45;;;;;;;;;;;17.40;63.40;;;;;;5174689;27;19978;-65
2022/11/02 10:31:22;;;;;;;;;;;17.40;63.40;;;;;;5173759;27;19918;-65
2022/11/02 10:33:48;;;;;;;;;;;17.50;63.40;;;;;;5173613;27;19974;-66
2022/11/02 10:36:27;;;;;;;;;;;17.50;63.40;;;;;;5193068;27;19918;-66
2022/11/02 10:39:13;;;;;;;;;;;17.50;63.40;;;;;;5192815;27;19922;-65
2022/11/02 10:41:51;;;;;;;;;;;17.50;63.30;;;;;;5174119;27;19918;-66
2022/11/02 10:44:32;;;;;;;;;;;17.50;63.20;;;;;;5174208;27;19918;-65
2022/11/02 10:47:15;;;;;;;;;;;17.50;63.20;;;;;;5192568;27;20044;-65
2022/11/02 10:52:29;;;;;;;;;;;17.50;63.20;;;;;;5109793;27;19912;-66
2022/11/02 10:54:54;;;;;;;;;;;17.50;63.10;;;;;;5108854;28;19921;-65
2022/11/02 10:57:22;;;;;;;;;;;17.50;63.10;;;;;;5109162;28;20386;-65
2022/11/02 11:00:08;;;;;;;;;;;17.50;63.10;;;;;;5109033;28;19926;-65
2022/11/02 11:02:33;;;;;;;;;;;17.50;63.20;;;;;;5108583;28;20007;-65
2022/11/02 11:05:18;;;;;;;;;;;17.50;63.10;;;;;;5109123;28;20011;-66
2022/11/02 11:07:43;;;;;;;;;;;17.50;63.10;;;;;;5109028;28;19989;-65
2022/11/02 11:10:13;;;;;;;;;;;17.50;63.00;;;;;;5108521;28;20375;-65
2022/11/02 11:12:41;;;;;;;;;;;17.40;63.00;;;;;;5108489;28;20294;-65
2022/11/02 11:15:18;;;;;;;;;;;17.50;63.00;;;;;;5108523;28;19920;-65
2022/11/02 11:17:44;;;;;;;;;;;17.50;63.00;;;;;;5108565;28;19966;-65
2022/11/02 11:20:30;;;;;;;;;;;17.50;63.00;;;;;;5109754;28;19960;-65
2022/11/02 11:23:15;;;;;;;;;;;17.50;63.00;;;;;;5109491;28;20375;-65
2022/11/02 11:25:41;;;;;;;;;;;17.50;63.00;;;;;;5108542;28;19927;-65
2022/11/02 11:28:26;;;;;;;;;;;17.50;63.00;;;;;;5108265;28;20386;-65
2022/11/02 11:31:12;;;;;;;;;;;17.50;62.90;;;;;;5108065;28;19924;-65
2022/11/02 11:33:46;;;;;;;;;;;17.50;62.90;;;;;;5107885;28;19950;-65
2022/11/02 11:36:19;;;;;;;;;;;17.50;62.90;;;;;;5109492;28;20016;-65
2022/11/02 11:38:46;;;;;;;;;;;17.50;62.90;;;;;;5108332;28;19920;-65
2022/11/02 11:41:12;;;;;;;;;;;17.50;62.90;;;;;;5108458;28;19920;-65
2022/11/02 11:43:39;;;;;;;;;;;17.40;62.90;;;;;;5109280;28;20327;-65
2022/11/02 11:46:06;;;;;;;;;;;17.50;62.90;;;;;;5107980;28;19920;-65
2022/11/02 11:51:32;;;;;;;;;;;17.40;62.90;;;;;;5110204;27;19912;-65
2022/11/02 11:54:05;;;;;;;;;;;17.40;62.90;;;;;;5108328;28;19928;-65
2022/11/02 11:56:31;;;;;;;;;;;17.40;62.80;;;;;;5108641;28;19926;-65
2022/11/02 11:58:56;;;;;;;;;;;17.50;62.90;;;;;;5109003;28;19924;-65
2022/11/02 12:01:22;;;;;;;;;;;17.40;62.90;;;;;;5108906;28;19973;-65
2022/11/02 12:03:49;;;;;;;;;;;17.50;62.90;;;;;;5109171;28;19927;-66
2022/11/02 12:06:35;;;;;;;;;;;17.40;62.70;;;;;;5108991;28;19926;-66
2022/11/02 12:11:49;;;;;;;;;;;17.50;62.70;;;;;;5089734;28;19913;-65
2022/11/02 12:14:21;;;;;;;;;;;17.50;62.70;;;;;;5088108;28;19924;-65
2022/11/02 12:17:07;;;;;;;;;;;17.40;62.60;;;;;;5089717;28;20287;-65
2022/11/02 12:22:17;;;;;;;;;;;17.50;62.70;;;;;;5127532;27;1867837;-65
2022/11/02 12:27:35;;;;;;;;;;;17.50;62.60;;;;;;5110376;27;19940;-65
2022/11/02 12:30:07;;;;;;;;;;;17.40;62.50;;;;;;5108875;28;20367;-65
2022/11/02 12:35:37;;;;;;;;;;;17.50;62.60;;;;;;5108884;27;19913;-65
2022/11/02 12:38:22;;;;;;;;;;;17.40;62.60;;;;;;5106737;28;19928;-65
2022/11/02 12:43:53;;;;;;;;;;;17.50;62.90;;;;;;5068080;28;19942;-63
2022/11/02 12:46:25;;;;;;;;;;;17.40;62.80;;;;;;5069686;28;20304;-64
2022/11/02 12:51:51;;;;;;;;;;;17.50;62.80;;;;;;5110193;27;19912;-64
2022/11/02 12:54:19;;;;;;;;;;;17.50;62.70;;;;;;5109655;28;19920;-64
2022/11/02 12:56:46;;;;;;;;;;;17.40;62.70;;;;;;5108465;28;19927;-64
2022/11/02 12:59:29;;;;;;;;;;;17.40;62.60;;;;;;5109241;28;20291;-64
2022/11/02 13:02:03;;;;;;;;;;;17.50;62.60;;;;;;5108746;28;20496;-64
2022/11/02 13:04:31;;;;;;;;;;;17.50;62.50;;;;;;5109146;28;20011;-64
2022/11/02 13:07:08;;;;;;;;;;;17.50;62.40;;;;;;5109065;28;20291;-64
2022/11/02 13:09:36;;;;;;;;;;;17.50;62.50;;;;;;5108650;28;19928;-64
2022/11/02 13:12:04;;;;;;;;;;;17.40;62.40;;;;;;5108630;28;20011;-64
2022/11/02 13:14:46;;;;;;;;;;;17.40;62.40;;;;;;5108171;28;20008;-65
2022/11/02 13:17:15;;;;;;;;;;;17.50;62.50;;;;;;5108356;28;20007;-64
2022/11/02 13:19:42;;;;;;;;;;;17.50;62.50;;;;;;5109759;28;20348;-64
2022/11/02 13:22:09;;;;;;;;;;;17.50;62.50;;;;;;5108750;28;19920;-64
2022/11/02 13:24:44;;;;;;;;;;;17.50;62.40;;;;;;5108357;28;19926;-63
2022/11/02 13:27:19;;;;;;;;;;;17.50;62.40;;;;;;5108314;28;19927;-63
2022/11/02 13:29:47;;;;;;;;;;;17.50;62.40;;;;;;5109525;28;20022;-64
2022/11/02 13:34:53;;;;;;;;;;;17.50;62.30;;;;;;5128142;27;2006026;-64
2022/11/02 13:37:29;;;;;;;;;;;17.50;62.40;;;;;;5174189;27;19919;-64
2022/11/02 13:39:58;;;;;;;;;;;17.50;62.30;;;;;;5193090;27;19919;-63
2022/11/02 13:42:30;;;;;;;;;;;17.50;62.40;;;;;;5174331;27;19926;-64
2022/11/02 13:45:04;;;;;;;;;;;17.50;62.30;;;;;;5174671;27;19919;-63
2022/11/02 13:50:14;;;;;;;;;;;17.50;62.30;;;;;;5129547;27;1865516;-64
2022/11/02 13:52:42;;;;;;;;;;;17.60;62.40;;;;;;5174486;27;19922;-63
2022/11/02 13:55:09;;;;;;;;;;;17.50;62.30;;;;;;5174195;27;19951;-63
2022/11/02 13:57:43;;;;;;;;;;;17.50;62.30;;;;;;5174230;27;19922;-63
2022/11/02 14:03:11;;;;;;;;;;;17.50;62.40;;;;;;5129422;27;1867143;-64
2022/11/02 14:05:40;;;;;;;;;;;17.40;62.30;;;;;;5174537;27;20014;-64
2022/11/02 14:08:08;;;;;;;;;;;17.40;63.00;;;;;;5174291;27;19926;-65
2022/11/02 14:10:36;;;;;;;;;;;17.50;62.40;;;;;;5174708;27;20270;-63
2022/11/02 14:13:02;;;;;;;;;;;17.50;62.30;;;;;;5174341;27;19925;-63
2022/11/02 14:18:11;;;;;;;;;;;17.50;62.30;;;;;;5127923;27;1854102;-63
2022/11/02 14:26:25;;;;;;;;;;;17.50;62.30;;;;;;5110385;27;19919;-63
2022/11/02 14:28:50;;;;;;;;;;;17.50;62.30;;;;;;5109007;28;20262;-65
2022/11/02 14:34:15;;;;;;;;;;;17.50;62.40;;;;;;5089399;28;19912;-63
2022/11/02 14:42:09;;;;;;;;;;;17.50;62.40;;;;;;5110162;27;19912;-63
2022/11/02 14:44:44;;;;;;;;;;;17.50;62.30;;;;;;5091928;28;19926;-65
2022/11/02 14:47:12;;;;;;;;;;;17.50;62.30;;;;;;5092301;28;20260;-63
2022/11/02 14:49:39;;;;;;;;;;;17.50;62.30;;;;;;5092175;28;19927;-63
2022/11/02 14:54:47;;;;;;;;;;;17.50;62.30;;;;;;5089494;28;19919;-63
2022/11/02 14:57:22;;;;;;;;;;;17.40;62.30;;;;;;5089469;28;19986;-63
2022/11/02 14:59:49;;;;;;;;;;;17.40;62.30;;;;;;5088473;28;19924;-64
2022/11/02 15:05:03;;;;;;;;;;;17.40;62.30;;;;;;5089964;28;19944;-63
2022/11/02 15:07:39;;;;;;;;;;;17.40;62.20;;;;;;5088819;28;20045;-64
2022/11/02 15:12:47;;;;;;;;;;;17.40;62.30;;;;;;5110290;27;19912;-63
2022/11/02 15:15:29;;;;;;;;;;;17.50;62.40;;;;;;5108430;28;20401;-63
2022/11/02 15:20:34;;;;;;;;;;;17.40;62.30;;;;;;5089913;28;19934;-63
2022/11/02 15:23:20;;;;;;;;;;;17.40;62.20;;;;;;5090209;28;19921;-63
2022/11/02 15:25:53;;;;;;;;;;;17.40;62.20;;;;;;5089644;28;20265;-63
2022/11/02 15:28:22;;;;;;;;;;;17.40;62.20;;;;;;5088517;28;19921;-63
2022/11/02 15:30:49;;;;;;;;;;;17.40;62.30;;;;;;5088722;28;20299;-63
2022/11/02 15:33:35;;;;;;;;;;;17.40;62.30;;;;;;5088212;28;19994;-63
2022/11/02 15:36:01;;;;;;;;;;;17.40;62.30;;;;;;5087959;28;19926;-63
2022/11/02 15:38:27;;;;;;;;;;;17.40;62.30;;;;;;5088104;28;19929;-63
2022/11/02 15:41:11;;;;;;;;;;;17.40;62.30;;;;;;5088583;28;19920;-63
2022/11/02 15:43:56;;;;;;;;;;;17.40;62.30;;;;;;5089767;28;19924;-63
2022/11/02 15:46:42;;;;;;;;;;;17.40;62.40;;;;;;5087914;28;20003;-63
2022/11/02 15:49:16;;;;;;;;;;;17.40;62.30;;;;;;5088147;28;20320;-63
2022/11/02 15:54:45;;;;;;;;;;;17.40;62.40;;;;;;5089621;28;19912;-63
2022/11/02 15:59:57;;;;;;;;;;;17.30;62.30;;;;;;5132931;27;1879945;-63
2022/11/02 16:02:28;;;;;;;;;;;17.30;62.30;;;;;;5174381;27;19918;-63
2022/11/02 16:04:55;;;;;;;;;;;17.40;62.40;;;;;;5174506;27;19922;-63
2022/11/02 16:07:21;;;;;;;;;;;17.40;62.40;;;;;;5174318;27;19919;-63
2022/11/02 16:09:47;;;;;;;;;;;17.30;62.30;;;;;;5174393;27;19970;-63
2022/11/02 16:14:56;;;;;;;;;;;17.40;62.40;;;;;;5125948;27;1903185;-63
2022/11/02 16:17:23;;;;;;;;;;;17.30;62.40;;;;;;5174262;27;20271;-63